<?xml version="1.0" encoding="UTF-8" standalone="no" ?>
<gpx xmlns="http://www.topografix.com/GPX/1/1" xmlns:xsi="http://www.w3.org/2001/XMLSchema-instance" xsi:schemaLocation="http://www.topografix.com/GPX/1/1 http://www.topografix.com/GPX/1/1/gpx.xsd" version="1.1" creator="VisuGPX - https://www.visugpx.com">
  <metadata>
    <name>Le Lac d'Issarles 2</name>
  </metadata>
  <trk>
    <name><![CDATA[Le Lac d'Issarles 2_1]]></name>
    <trkseg>
      <trkpt lat="44.81786" lon="4.06391">
        <ele>1003.6</ele>
        <extensions>
          <visugpx:TrkExtension xmlns:visugpx="https://www.visugpx.com/editgpx/">
            <visugpx:node>3</visugpx:node>
            </visugpx:TrkExtension>
        </extensions>
      </trkpt>
      <trkpt lat="44.81754" lon="4.06372">
        <ele>1002.8</ele>
        <extensions>
          <visugpx:TrkExtension xmlns:visugpx="https://www.visugpx.com/editgpx/">
            <visugpx:node>2</visugpx:node>
            </visugpx:TrkExtension>
        </extensions>
      </trkpt>
      <trkpt lat="44.81728" lon="4.06351">
        <ele>1001</ele>
        <time>2020-09-16T09:12:11Z</time>
      </trkpt>
      <trkpt lat="44.81886" lon="4.06458">
        <ele>1012</ele>
        <time>2020-09-16T09:16:05Z</time>
      </trkpt>
      <trkpt lat="44.81996" lon="4.06604">
        <ele>1014</ele>
        <time>2020-09-16T09:19:27Z</time>
      </trkpt>
      <trkpt lat="44.82172" lon="4.06685">
        <ele>1014</ele>
        <time>2020-09-16T09:23:34Z</time>
      </trkpt>
      <trkpt lat="44.82309" lon="4.06818">
        <ele>1013</ele>
        <time>2020-09-16T09:27:16Z</time>
      </trkpt>
      <trkpt lat="44.82361" lon="4.0696">
        <ele>1008</ele>
        <time>2020-09-16T09:29:47Z</time>
      </trkpt>
      <trkpt lat="44.82376" lon="4.07119">
        <ele>1007</ele>
        <time>2020-09-16T09:32:19Z</time>
      </trkpt>
      <trkpt lat="44.82382" lon="4.07226">
        <ele>1010</ele>
        <time>2020-09-16T09:34:00Z</time>
      </trkpt>
      <trkpt lat="44.82401" lon="4.07325">
        <ele>1017</ele>
        <time>2020-09-16T09:35:38Z</time>
      </trkpt>
      <trkpt lat="44.82376" lon="4.07535">
        <ele>1024</ele>
        <time>2020-09-16T09:38:59Z</time>
      </trkpt>
      <trkpt lat="44.82379" lon="4.0763">
        <ele>1030</ele>
        <time>2020-09-16T09:40:29Z</time>
      </trkpt>
      <trkpt lat="44.82449" lon="4.07793">
        <ele>1034</ele>
        <time>2020-09-16T09:43:29Z</time>
      </trkpt>
      <trkpt lat="44.82498" lon="4.07818">
        <ele>1026</ele>
        <time>2020-09-16T09:44:39Z</time>
      </trkpt>
      <trkpt lat="44.82492" lon="4.07904">
        <ele>1031</ele>
        <time>2020-09-16T09:46:01Z</time>
      </trkpt>
      <trkpt lat="44.82562" lon="4.07883">
        <ele>1027</ele>
        <time>2020-09-16T09:47:36Z</time>
      </trkpt>
      <trkpt lat="44.82577" lon="4.07981">
        <ele>1039</ele>
        <time>2020-09-16T09:49:11Z</time>
      </trkpt>
      <trkpt lat="44.82638" lon="4.08119">
        <ele>1044</ele>
        <time>2020-09-16T09:51:45Z</time>
      </trkpt>
      <trkpt lat="44.82699" lon="4.0823">
        <ele>1041</ele>
        <time>2020-09-16T09:53:58Z</time>
      </trkpt>
      <trkpt lat="44.82665" lon="4.08398">
        <ele>1042</ele>
        <time>2020-09-16T09:56:43Z</time>
      </trkpt>
      <trkpt lat="44.82611" lon="4.08484">
        <ele>1054</ele>
        <time>2020-09-16T09:58:32Z</time>
      </trkpt>
      <trkpt lat="44.82608" lon="4.08638">
        <ele>1059</ele>
        <time>2020-09-16T10:00:58Z</time>
      </trkpt>
      <trkpt lat="44.8265" lon="4.08664">
        <ele>1058</ele>
        <time>2020-09-16T10:01:59Z</time>
      </trkpt>
      <trkpt lat="44.82751" lon="4.08544">
        <ele>1048</ele>
        <time>2020-09-16T10:04:55Z</time>
      </trkpt>
      <trkpt lat="44.82805" lon="4.08552">
        <ele>1052</ele>
        <time>2020-09-16T10:06:08Z</time>
      </trkpt>
      <trkpt lat="44.82757" lon="4.08604">
        <ele>1062</ele>
        <time>2020-09-16T10:07:29Z</time>
      </trkpt>
      <trkpt lat="44.82723" lon="4.0869">
        <ele>1076</ele>
        <time>2020-09-16T10:09:02Z</time>
      </trkpt>
      <trkpt lat="44.82647" lon="4.08784">
        <ele>1090</ele>
        <time>2020-09-16T10:11:17Z</time>
      </trkpt>
      <trkpt lat="44.82586" lon="4.08853">
        <ele>1103</ele>
        <time>2020-09-16T10:13:01Z</time>
      </trkpt>
      <trkpt lat="44.82541" lon="4.08878">
        <ele>1108</ele>
        <time>2020-09-16T10:14:06Z</time>
      </trkpt>
      <trkpt lat="44.82443" lon="4.08969">
        <ele>1129</ele>
        <time>2020-09-16T10:16:42Z</time>
      </trkpt>
      <trkpt lat="44.82358" lon="4.08956">
        <ele>1138</ele>
        <time>2020-09-16T10:18:36Z</time>
      </trkpt>
      <trkpt lat="44.8234" lon="4.08883">
        <ele>1132</ele>
        <time>2020-09-16T10:19:49Z</time>
      </trkpt>
      <trkpt lat="44.82285" lon="4.0887">
        <ele>1147</ele>
        <time>2020-09-16T10:21:04Z</time>
      </trkpt>
      <trkpt lat="44.82315" lon="4.08964">
        <ele>1149</ele>
        <time>2020-09-16T10:22:41Z</time>
      </trkpt>
      <trkpt lat="44.82288" lon="4.09024">
        <ele>1171</ele>
        <time>2020-09-16T10:23:49Z</time>
      </trkpt>
      <trkpt lat="44.82352" lon="4.09097">
        <ele>1174</ele>
        <time>2020-09-16T10:25:38Z</time>
      </trkpt>
      <trkpt lat="44.82419" lon="4.09205">
        <ele>1201</ele>
        <time>2020-09-16T10:27:54Z</time>
      </trkpt>
      <trkpt lat="44.82437" lon="4.09273">
        <ele>1219</ele>
        <time>2020-09-16T10:29:03Z</time>
      </trkpt>
      <trkpt lat="44.82577" lon="4.09222">
        <ele>1213</ele>
        <time>2020-09-16T10:32:16Z</time>
      </trkpt>
      <trkpt lat="44.8269" lon="4.09153">
        <ele>1206</ele>
        <time>2020-09-16T10:35:00Z</time>
      </trkpt>
      <trkpt lat="44.82647" lon="4.0926">
        <ele>1233</ele>
        <time>2020-09-16T10:36:57Z</time>
      </trkpt>
      <trkpt lat="44.82586" lon="4.09411">
        <ele>1267</ele>
        <time>2020-09-16T10:39:41Z</time>
      </trkpt>
      <trkpt lat="44.82723" lon="4.09428">
        <ele>1260</ele>
        <time>2020-09-16T10:42:45Z</time>
      </trkpt>
      <trkpt lat="44.82802" lon="4.09617">
        <ele>1275</ele>
        <time>2020-09-16T10:46:12Z</time>
      </trkpt>
      <trkpt lat="44.829" lon="4.09973">
        <ele>1271</ele>
        <time>2020-09-16T10:52:14Z</time>
      </trkpt>
      <trkpt lat="44.82836" lon="4.09908">
        <ele>1276</ele>
        <time>2020-09-16T10:53:59Z</time>
      </trkpt>
      <trkpt lat="44.82751" lon="4.0987">
        <ele>1289</ele>
        <time>2020-09-16T10:55:58Z</time>
      </trkpt>
      <trkpt lat="44.82702" lon="4.09724">
        <ele>1307</ele>
        <time>2020-09-16T10:58:31Z</time>
      </trkpt>
      <trkpt lat="44.82608" lon="4.09617">
        <ele>1320</ele>
        <time>2020-09-16T11:01:12Z</time>
      </trkpt>
      <trkpt lat="44.82608" lon="4.09762">
        <ele>1324</ele>
        <time>2020-09-16T11:03:29Z</time>
      </trkpt>
      <trkpt lat="44.82562" lon="4.09647">
        <ele>1327</ele>
        <time>2020-09-16T11:05:34Z</time>
      </trkpt>
      <trkpt lat="44.82474" lon="4.09595">
        <ele>1316</ele>
        <time>2020-09-16T11:07:42Z</time>
      </trkpt>
      <trkpt lat="44.82358" lon="4.09685">
        <ele>1322</ele>
        <time>2020-09-16T11:10:38Z</time>
      </trkpt>
      <trkpt lat="44.82279" lon="4.09711">
        <ele>1314</ele>
        <time>2020-09-16T11:12:27Z</time>
      </trkpt>
      <trkpt lat="44.82178" lon="4.09608">
        <ele>1281</ele>
        <time>2020-09-16T11:15:13Z</time>
      </trkpt>
      <trkpt lat="44.82105" lon="4.09475">
        <ele>1267</ele>
        <time>2020-09-16T11:17:52Z</time>
      </trkpt>
      <trkpt lat="44.82017" lon="4.09441">
        <ele>1266</ele>
        <time>2020-09-16T11:19:54Z</time>
      </trkpt>
      <trkpt lat="44.8195" lon="4.09531">
        <ele>1260</ele>
        <time>2020-09-16T11:21:57Z</time>
      </trkpt>
      <trkpt lat="44.81856" lon="4.09565">
        <ele>1251</ele>
        <time>2020-09-16T11:24:07Z</time>
      </trkpt>
      <trkpt lat="44.81704" lon="4.09514">
        <ele>1255</ele>
        <time>2020-09-16T11:27:35Z</time>
      </trkpt>
      <trkpt lat="44.81652" lon="4.09595">
        <ele>1240</ele>
        <time>2020-09-16T11:29:19Z</time>
      </trkpt>
      <trkpt lat="44.8174" lon="4.09642">
        <ele>1233</ele>
        <time>2020-09-16T11:31:24Z</time>
      </trkpt>
      <trkpt lat="44.81828" lon="4.09668">
        <ele>1228</ele>
        <time>2020-09-16T11:33:24Z</time>
      </trkpt>
      <trkpt lat="44.81932" lon="4.09865">
        <ele>1219</ele>
        <time>2020-09-16T11:37:17Z</time>
      </trkpt>
      <trkpt lat="44.81932" lon="4.09947">
        <ele>1208</ele>
        <time>2020-09-16T11:38:34Z</time>
      </trkpt>
      <trkpt lat="44.82005" lon="4.10063">
        <ele>1195</ele>
        <time>2020-09-16T11:41:01Z</time>
      </trkpt>
      <trkpt lat="44.82057" lon="4.10235">
        <ele>1177</ele>
        <time>2020-09-16T11:43:58Z</time>
      </trkpt>
      <trkpt lat="44.82181" lon="4.10333">
        <ele>1172</ele>
        <time>2020-09-16T11:47:08Z</time>
      </trkpt>
      <trkpt lat="44.82239" lon="4.10449">
        <ele>1167</ele>
        <time>2020-09-16T11:49:22Z</time>
      </trkpt>
      <trkpt lat="44.82148" lon="4.10685">
        <ele>1158</ele>
        <time>2020-09-16T11:53:36Z</time>
      </trkpt>
      <trkpt lat="44.82093" lon="4.10629">
        <ele>1155</ele>
        <time>2020-09-16T11:55:07Z</time>
      </trkpt>
      <trkpt lat="44.81971" lon="4.10595">
        <ele>1139</ele>
        <time>2020-09-16T11:57:53Z</time>
      </trkpt>
      <trkpt lat="44.81923" lon="4.10428">
        <ele>1134</ele>
        <time>2020-09-16T12:00:43Z</time>
      </trkpt>
      <trkpt lat="44.81841" lon="4.1035">
        <ele>1133</ele>
        <time>2020-09-16T12:02:56Z</time>
      </trkpt>
      <trkpt lat="44.81621" lon="4.10295">
        <ele>1104</ele>
        <time>2020-09-16T12:07:54Z</time>
      </trkpt>
      <trkpt lat="44.8146" lon="4.10217">
        <ele>1097</ele>
        <time>2020-09-16T12:11:41Z</time>
      </trkpt>
      <trkpt lat="44.81335" lon="4.10213">
        <ele>1090</ele>
        <time>2020-09-16T12:14:28Z</time>
      </trkpt>
      <trkpt lat="44.81265" lon="4.10235">
        <ele>1087</ele>
        <time>2020-09-16T12:16:03Z</time>
      </trkpt>
      <trkpt lat="44.81235" lon="4.10187">
        <ele>1091</ele>
        <time>2020-09-16T12:17:04Z</time>
      </trkpt>
      <trkpt lat="44.81171" lon="4.10277">
        <ele>1080</ele>
        <time>2020-09-16T12:19:05Z</time>
      </trkpt>
      <trkpt lat="44.81104" lon="4.10393">
        <ele>1066</ele>
        <time>2020-09-16T12:21:26Z</time>
      </trkpt>
      <trkpt lat="44.81037" lon="4.1032">
        <ele>1073</ele>
        <time>2020-09-16T12:23:19Z</time>
      </trkpt>
      <trkpt lat="44.809" lon="4.10235">
        <ele>1072</ele>
        <time>2020-09-16T12:26:39Z</time>
      </trkpt>
      <trkpt lat="44.80793" lon="4.10265">
        <ele>1060</ele>
        <time>2020-09-16T12:29:05Z</time>
      </trkpt>
      <trkpt lat="44.80705" lon="4.10385">
        <ele>1043</ele>
        <time>2020-09-16T12:31:48Z</time>
      </trkpt>
      <trkpt lat="44.8051" lon="4.10359">
        <ele>1046</ele>
        <time>2020-09-16T12:36:09Z</time>
      </trkpt>
      <trkpt lat="44.8051" lon="4.10162">
        <ele>1072</ele>
        <time>2020-09-16T12:39:16Z</time>
      </trkpt>
      <trkpt lat="44.80464" lon="4.09926">
        <ele>1078</ele>
        <time>2020-09-16T12:43:08Z</time>
      </trkpt>
      <trkpt lat="44.80458" lon="4.09732">
        <ele>1088</ele>
        <time>2020-09-16T12:46:11Z</time>
      </trkpt>
      <trkpt lat="44.80455" lon="4.09569">
        <ele>1097</ele>
        <time>2020-09-16T12:48:46Z</time>
      </trkpt>
      <trkpt lat="44.80422" lon="4.09509">
        <ele>1097</ele>
        <time>2020-09-16T12:49:58Z</time>
      </trkpt>
      <trkpt lat="44.8033" lon="4.09565">
        <ele>1084</ele>
        <time>2020-09-16T12:52:11Z</time>
      </trkpt>
      <trkpt lat="44.80257" lon="4.09531">
        <ele>1082</ele>
        <time>2020-09-16T12:53:54Z</time>
      </trkpt>
      <trkpt lat="44.80157" lon="4.09544">
        <ele>1071</ele>
        <time>2020-09-16T12:56:08Z</time>
      </trkpt>
      <trkpt lat="44.80139" lon="4.09445">
        <ele>1060</ele>
        <time>2020-09-16T12:57:45Z</time>
      </trkpt>
      <trkpt lat="44.80215" lon="4.09406">
        <ele>1060</ele>
        <time>2020-09-16T12:59:33Z</time>
      </trkpt>
      <trkpt lat="44.80315" lon="4.09359">
        <ele>1055</ele>
        <time>2020-09-16T13:01:53Z</time>
      </trkpt>
      <trkpt lat="44.80388" lon="4.09252">
        <ele>1040</ele>
        <time>2020-09-16T13:04:14Z</time>
      </trkpt>
      <trkpt lat="44.80452" lon="4.0923">
        <ele>1049</ele>
        <time>2020-09-16T13:05:42Z</time>
      </trkpt>
      <trkpt lat="44.8048" lon="4.09046">
        <ele>1017</ele>
        <time>2020-09-16T13:08:40Z</time>
      </trkpt>
      <trkpt lat="44.80537" lon="4.09089">
        <ele>1030</ele>
        <time>2020-09-16T13:10:06Z</time>
      </trkpt>
      <trkpt lat="44.80614" lon="4.0908">
        <ele>1036</ele>
        <time>2020-09-16T13:11:49Z</time>
      </trkpt>
      <trkpt lat="44.80574" lon="4.09007">
        <ele>1020</ele>
        <time>2020-09-16T13:13:17Z</time>
      </trkpt>
      <trkpt lat="44.80671" lon="4.08964">
        <ele>1040</ele>
        <time>2020-09-16T13:15:32Z</time>
      </trkpt>
      <trkpt lat="44.80614" lon="4.08823">
        <ele>1025</ele>
        <time>2020-09-16T13:18:06Z</time>
      </trkpt>
      <trkpt lat="44.80626" lon="4.08685">
        <ele>1027</ele>
        <time>2020-09-16T13:20:18Z</time>
      </trkpt>
      <trkpt lat="44.80674" lon="4.08548">
        <ele>1035</ele>
        <time>2020-09-16T13:22:42Z</time>
      </trkpt>
      <trkpt lat="44.80778" lon="4.08569">
        <ele>1050</ele>
        <time>2020-09-16T13:25:03Z</time>
      </trkpt>
      <trkpt lat="44.80878" lon="4.08587">
        <ele>1061</ele>
        <time>2020-09-16T13:27:17Z</time>
      </trkpt>
      <trkpt lat="44.80945" lon="4.08471">
        <ele>1054</ele>
        <time>2020-09-16T13:29:39Z</time>
      </trkpt>
      <trkpt lat="44.81009" lon="4.08423">
        <ele>1059</ele>
        <time>2020-09-16T13:31:15Z</time>
      </trkpt>
      <trkpt lat="44.81046" lon="4.08363">
        <ele>1056</ele>
        <time>2020-09-16T13:32:31Z</time>
      </trkpt>
      <trkpt lat="44.8111" lon="4.08342">
        <ele>1074</ele>
        <time>2020-09-16T13:33:58Z</time>
      </trkpt>
      <trkpt lat="44.81046" lon="4.08183">
        <ele>1051</ele>
        <time>2020-09-16T13:36:52Z</time>
      </trkpt>
      <trkpt lat="44.81073" lon="4.07973">
        <ele>1070</ele>
        <time>2020-09-16T13:40:14Z</time>
      </trkpt>
      <trkpt lat="44.81006" lon="4.07921">
        <ele>1062</ele>
        <time>2020-09-16T13:41:56Z</time>
      </trkpt>
      <trkpt lat="44.80967" lon="4.07831">
        <ele>1069</ele>
        <time>2020-09-16T13:43:35Z</time>
      </trkpt>
      <trkpt lat="44.81003" lon="4.07655">
        <ele>1091</ele>
        <time>2020-09-16T13:46:29Z</time>
      </trkpt>
      <trkpt lat="44.80924" lon="4.07445">
        <ele>1090</ele>
        <time>2020-09-16T13:50:14Z</time>
      </trkpt>
      <trkpt lat="44.80933" lon="4.07333">
        <ele>1109</ele>
        <time>2020-09-16T13:52:01Z</time>
      </trkpt>
      <trkpt lat="44.80909" lon="4.07196">
        <ele>1125</ele>
        <time>2020-09-16T13:54:14Z</time>
      </trkpt>
      <trkpt lat="44.8076" lon="4.07175">
        <ele>1085</ele>
        <time>2020-09-16T13:57:34Z</time>
      </trkpt>
      <trkpt lat="44.80775" lon="4.06986">
        <ele>1091</ele>
        <time>2020-09-16T14:00:34Z</time>
      </trkpt>
      <trkpt lat="44.80757" lon="4.06814">
        <ele>1084</ele>
        <time>2020-09-16T14:03:19Z</time>
      </trkpt>
      <trkpt lat="44.80772" lon="4.06673">
        <ele>1084</ele>
        <time>2020-09-16T14:05:34Z</time>
      </trkpt>
      <trkpt lat="44.8076" lon="4.0654">
        <ele>1078</ele>
        <time>2020-09-16T14:07:41Z</time>
      </trkpt>
      <trkpt lat="44.80808" lon="4.06428">
        <ele>1080</ele>
        <time>2020-09-16T14:09:45Z</time>
      </trkpt>
      <trkpt lat="44.80921" lon="4.06402">
        <ele>1080</ele>
        <time>2020-09-16T14:12:17Z</time>
      </trkpt>
      <trkpt lat="44.80985" lon="4.06449">
        <ele>1080</ele>
        <time>2020-09-16T14:13:54Z</time>
      </trkpt>
      <trkpt lat="44.81089" lon="4.06458">
        <ele>1064</ele>
        <time>2020-09-16T14:16:13Z</time>
      </trkpt>
      <trkpt lat="44.81241" lon="4.0657">
        <ele>1040</ele>
        <time>2020-09-16T14:20:02Z</time>
      </trkpt>
      <trkpt lat="44.8136" lon="4.06462">
        <ele>1021</ele>
        <time>2020-09-16T14:23:10Z</time>
      </trkpt>
      <trkpt lat="44.81466" lon="4.06347">
        <ele>1015</ele>
        <time>2020-09-16T14:26:09Z</time>
      </trkpt>
      <trkpt lat="44.81621" lon="4.0633">
        <ele>1006</ele>
        <time>2020-09-16T14:29:36Z</time>
        <extensions>
          <visugpx:TrkExtension xmlns:visugpx="https://www.visugpx.com/editgpx/">
            <visugpx:node>1</visugpx:node>
            </visugpx:TrkExtension>
        </extensions>
      </trkpt>
      <trkpt lat="44.81622" lon="4.06316">
        <ele>1004.7</ele>
      </trkpt>
      <trkpt lat="44.81631" lon="4.06318">
        <ele>1004.3</ele>
      </trkpt>
      <trkpt lat="44.81634" lon="4.06319">
        <ele>1004.2</ele>
      </trkpt>
      <trkpt lat="44.81652" lon="4.06324">
        <ele>1003.3</ele>
      </trkpt>
      <trkpt lat="44.81654" lon="4.06325">
        <ele>1003.2</ele>
      </trkpt>
      <trkpt lat="44.81668" lon="4.06329">
        <ele>1001.8</ele>
      </trkpt>
      <trkpt lat="44.81678" lon="4.06333">
        <ele>1001.5</ele>
      </trkpt>
      <trkpt lat="44.81681" lon="4.06334">
        <ele>1000.7</ele>
      </trkpt>
      <trkpt lat="44.8169" lon="4.06336">
        <ele>1000.3</ele>
      </trkpt>
      <trkpt lat="44.81691" lon="4.06337">
        <ele>1000.3</ele>
      </trkpt>
      <trkpt lat="44.817" lon="4.06339">
        <ele>1000.1</ele>
      </trkpt>
      <trkpt lat="44.81707" lon="4.0634">
        <ele>1000</ele>
      </trkpt>
      <trkpt lat="44.81715" lon="4.06341">
        <ele>1000.1</ele>
        <extensions>
          <visugpx:TrkExtension xmlns:visugpx="https://www.visugpx.com/editgpx/">
            <visugpx:node>4</visugpx:node>
            </visugpx:TrkExtension>
        </extensions>
      </trkpt>
    </trkseg>
  </trk>
</gpx>